createdAt,value
2023-04-26T00:00:35.620Z,2.81
2023-04-26T00:01:35.114Z,2.79
2023-04-26T00:02:35.360Z,2.74
2023-04-26T00:03:35.543Z,2.69
2023-04-26T00:04:36.694Z,2.66
2023-04-26T00:05:35.839Z,2.71
2023-04-26T00:06:35.891Z,2.76
2023-04-26T00:07:36.610Z,2.73
2023-04-26T00:08:36.275Z,2.67
2023-04-26T00:09:36.427Z,2.67
2023-04-26T00:10:36.571Z,2.66
2023-04-26T00:11:38.070Z,2.67
2023-04-26T00:12:38.582Z,2.74
2023-04-26T00:13:38.059Z,2.69
2023-04-26T00:14:37.320Z,2.69
2023-04-26T00:15:37.452Z,2.56
2023-04-26T00:16:38.157Z,2.66
2023-04-26T00:17:38.649Z,2.61
2023-04-26T00:18:38.121Z,2.63
2023-04-26T00:19:39.175Z,2.58
2023-04-26T00:20:39.569Z,2.66
2023-04-26T00:21:41.087Z,2.55
2023-04-26T00:22:38.584Z,2.61
2023-04-26T00:23:39.623Z,2.51
2023-04-26T00:24:38.865Z,2.49
2023-04-26T00:25:40.078Z,2.55
2023-04-26T00:26:40.113Z,2.46
2023-04-26T00:27:40.573Z,2.41
2023-04-26T00:28:39.666Z,2.49
2023-04-26T00:29:39.797Z,2.51
2023-04-26T00:30:39.923Z,2.48
2023-04-26T00:31:40.670Z,2.63
2023-04-26T00:32:40.245Z,2.58
2023-04-26T00:33:40.312Z,2.51
2023-04-26T00:34:41.117Z,2.55
2023-04-26T00:35:40.613Z,2.49
2023-04-26T00:36:40.770Z,2.59
2023-04-26T00:37:41.086Z,2.58
2023-04-26T00:38:41.113Z,2.58
2023-04-26T00:39:41.217Z,2.61
2023-04-26T00:40:41.374Z,2.56
2023-04-26T00:41:42.113Z,2.56
2023-04-26T00:42:42.578Z,2.63
2023-04-26T00:43:41.950Z,2.52
2023-04-26T00:44:42.617Z,2.61
2023-04-26T00:45:43.099Z,2.53
2023-04-26T00:46:42.451Z,2.59
2023-04-26T00:47:43.085Z,2.61
2023-04-26T00:48:43.577Z,2.56
2023-04-26T00:49:43.964Z,2.52
2023-04-26T00:50:42.982Z,2.52
2023-04-26T00:51:45.097Z,2.61
2023-04-26T00:52:43.665Z,2.53
2023-04-26T00:53:44.119Z,2.53
2023-04-26T00:54:44.644Z,2.46
2023-04-26T00:55:43.922Z,2.49
2023-04-26T00:56:44.091Z,2.38
2023-04-26T00:57:44.254Z,2.34
2023-04-26T00:58:44.428Z,2.40
2023-04-26T00:59:45.128Z,2.41
2023-04-26T01:00:44.828Z,2.37
2023-04-26T01:01:45.580Z,2.26
2023-04-26T01:02:46.237Z,2.34
2023-04-26T01:03:45.502Z,2.35
2023-04-26T01:04:47.574Z,2.28
2023-04-26T01:05:47.579Z,2.37
2023-04-26T01:06:45.857Z,2.26
2023-04-26T01:07:46.970Z,2.34
2023-04-26T01:08:47.175Z,2.26
2023-04-26T01:09:47.560Z,2.22
2023-04-26T01:10:47.142Z,2.23
2023-04-26T01:11:47.144Z,2.22
2023-04-26T01:12:46.967Z,2.12
2023-04-26T01:13:48.123Z,2.16
2023-04-26T01:14:47.408Z,2.16
2023-04-26T01:15:48.128Z,2.16
2023-04-26T01:16:48.858Z,2.26
2023-04-26T01:17:47.974Z,2.06
2023-04-26T01:18:48.128Z,2.04
2023-04-26T01:19:48.624Z,2.01
2023-04-26T01:20:49.119Z,2.10
2023-04-26T01:21:49.619Z,1.94
2023-04-26T01:22:50.584Z,2.08
2023-04-26T01:23:49.217Z,2.09
2023-04-26T01:24:49.627Z,1.99
2023-04-26T01:25:49.553Z,1.97
2023-04-26T01:26:50.620Z,1.89
2023-04-26T01:27:49.856Z,1.83
2023-04-26T01:28:50.177Z,1.76
2023-04-26T01:29:50.635Z,1.76
2023-04-26T01:30:50.430Z,1.68
2023-04-26T01:31:50.631Z,1.76
2023-04-26T01:32:52.624Z,1.82
2023-04-26T01:33:50.874Z,1.76
2023-04-26T01:34:52.581Z,1.69
2023-04-26T01:35:51.213Z,1.75
2023-04-26T01:36:51.378Z,1.73
2023-04-26T01:37:51.534Z,1.78
2023-04-26T01:38:52.962Z,1.78
2023-04-26T01:39:51.820Z,1.78
2023-04-26T01:40:52.647Z,1.71
2023-04-26T01:41:52.196Z,1.75
2023-04-26T01:42:52.390Z,1.78
2023-04-26T01:43:52.561Z,1.60
2023-04-26T01:44:53.619Z,1.62
2023-04-26T01:45:52.926Z,1.51
2023-04-26T01:46:53.102Z,1.58
2023-04-26T01:47:54.198Z,1.60
2023-04-26T01:48:53.613Z,1.54
2023-04-26T01:49:53.554Z,1.54
2023-04-26T01:50:53.698Z,1.46
2023-04-26T01:51:53.877Z,1.47
2023-04-26T01:52:54.059Z,1.46
2023-04-26T01:53:54.223Z,1.39
2023-04-26T01:54:54.390Z,1.43
2023-04-26T01:55:55.126Z,1.43
2023-04-26T01:56:56.597Z,1.44
2023-04-26T01:57:56.024Z,1.39
2023-04-26T01:58:55.159Z,1.33
2023-04-26T01:59:57.145Z,1.36
2023-04-26T02:00:56.084Z,1.39
2023-04-26T02:01:56.682Z,1.43
2023-04-26T02:02:57.723Z,1.43
2023-04-26T02:03:56.128Z,1.47
2023-04-26T02:04:57.184Z,1.46
2023-04-26T02:05:56.400Z,1.47
2023-04-26T02:06:57.091Z,1.46
2023-04-26T02:07:56.734Z,1.37
2023-04-26T02:08:57.600Z,1.37
2023-04-26T02:09:57.086Z,1.43
2023-04-26T02:10:58.119Z,1.52
2023-04-26T02:11:58.089Z,1.47
2023-04-26T02:12:57.612Z,1.40
2023-04-26T02:13:59.596Z,1.26
2023-04-26T02:14:58.636Z,1.28
2023-04-26T02:15:58.190Z,1.25
2023-04-26T02:16:59.133Z,1.28
2023-04-26T02:17:58.478Z,1.29
2023-04-26T02:19:00.588Z,1.34
2023-04-26T02:19:58.777Z,1.25
2023-04-26T02:20:59.635Z,1.25
2023-04-26T02:21:59.178Z,1.26
2023-04-26T02:23:00.153Z,1.32
2023-04-26T02:24:01.097Z,1.32
2023-04-26T02:24:59.683Z,1.22
2023-04-26T02:25:59.853Z,1.28
2023-04-26T02:27:00.600Z,1.19
2023-04-26T02:28:00.261Z,1.32
2023-04-26T02:29:00.806Z,1.29
2023-04-26T02:30:00.574Z,1.18
2023-04-26T02:31:00.763Z,1.28
2023-04-26T02:32:01.155Z,1.32
2023-04-26T02:33:01.726Z,1.19
2023-04-26T02:34:02.092Z,1.28
2023-04-26T02:35:01.494Z,1.16
2023-04-26T02:36:01.692Z,1.21
2023-04-26T02:37:02.671Z,1.26
2023-04-26T02:38:02.647Z,1.16
2023-04-26T02:39:03.133Z,1.21
2023-04-26T02:40:02.529Z,1.16
2023-04-26T02:41:02.742Z,1.19
2023-04-26T02:42:02.921Z,1.14
2023-04-26T02:43:03.095Z,1.08
2023-04-26T02:44:03.261Z,1.04
2023-04-26T02:45:04.089Z,1.12
2023-04-26T02:46:05.592Z,1.06
2023-04-26T02:47:04.203Z,0.98
2023-04-26T02:48:04.123Z,1.08
2023-04-26T02:49:05.150Z,1.15
2023-04-26T02:50:05.153Z,1.15
2023-04-26T02:51:04.549Z,1.24
2023-04-26T02:52:06.099Z,1.16
2023-04-26T02:53:05.658Z,1.12
2023-04-26T02:54:07.024Z,1.15
2023-04-26T02:55:06.278Z,1.00
2023-04-26T02:56:05.483Z,1.10
2023-04-26T02:57:06.096Z,1.10
2023-04-26T02:58:06.661Z,1.12
2023-04-26T02:59:06.632Z,1.12
2023-04-26T03:00:07.180Z,1.08
2023-04-26T03:01:06.416Z,1.04
2023-04-26T03:02:08.010Z,1.00
2023-04-26T03:03:06.884Z,1.06
2023-04-26T03:04:07.007Z,1.07
2023-04-26T03:05:07.203Z,1.06
2023-04-26T03:06:07.410Z,1.03
2023-04-26T03:07:08.140Z,1.08
2023-04-26T03:08:08.658Z,1.12
2023-04-26T03:09:08.482Z,1.04
2023-04-26T03:10:08.147Z,1.00
2023-04-26T03:11:09.202Z,0.98
2023-04-26T03:12:08.476Z,0.97
2023-04-26T03:13:08.675Z,0.90
2023-04-26T03:14:09.600Z,1.01
2023-04-26T03:15:09.603Z,1.08
2023-04-26T03:16:10.153Z,1.07
2023-04-26T03:17:10.168Z,1.01
2023-04-26T03:18:09.505Z,0.97
2023-04-26T03:19:09.601Z,1.00
2023-04-26T03:20:10.600Z,1.04
2023-04-26T03:21:10.635Z,0.94
2023-04-26T03:22:10.169Z,1.00
2023-04-26T03:23:10.656Z,0.98
2023-04-26T03:24:10.554Z,0.90
2023-04-26T03:25:12.488Z,0.98
2023-04-26T03:26:11.600Z,1.00
2023-04-26T03:27:11.073Z,1.00
2023-04-26T03:28:11.127Z,0.96
2023-04-26T03:29:11.292Z,0.86
2023-04-26T03:30:11.690Z,0.89
2023-04-26T03:31:11.677Z,0.86
2023-04-26T03:32:12.715Z,0.82
2023-04-26T03:33:12.710Z,0.83
2023-04-26T03:34:12.201Z,0.85
2023-04-26T03:35:12.664Z,0.85
2023-04-26T03:36:13.033Z,0.82
2023-04-26T03:37:15.119Z,0.90
2023-04-26T03:38:12.947Z,0.97
2023-04-26T03:39:13.166Z,0.98
2023-04-26T03:40:14.158Z,1.01
2023-04-26T03:41:14.126Z,0.96
2023-04-26T03:42:13.688Z,0.92
2023-04-26T03:43:14.674Z,1.08
2023-04-26T03:44:14.055Z,1.01
2023-04-26T03:45:14.216Z,0.98
2023-04-26T03:46:14.737Z,0.98
2023-04-26T03:47:16.104Z,1.04
2023-04-26T03:48:15.652Z,1.03
2023-04-26T03:49:14.909Z,0.97
2023-04-26T03:50:15.078Z,0.90
2023-04-26T03:51:15.229Z,0.88
2023-04-26T03:52:15.345Z,1.01
2023-04-26T03:53:16.483Z,0.98
2023-04-26T03:54:15.708Z,1.03
2023-04-26T03:55:15.843Z,1.08
2023-04-26T03:56:16.649Z,1.04
2023-04-26T03:57:16.152Z,1.04
2023-04-26T03:58:17.204Z,1.03
2023-04-26T03:59:16.438Z,1.12
2023-04-26T04:00:16.608Z,0.94
2023-04-26T04:01:17.650Z,0.92
2023-04-26T04:02:17.051Z,0.97
2023-04-26T04:03:17.765Z,0.92
2023-04-26T04:04:17.583Z,0.82
2023-04-26T04:05:18.304Z,0.86
2023-04-26T04:06:19.164Z,0.86
2023-04-26T04:07:19.115Z,0.94
2023-04-26T04:08:18.655Z,0.98
2023-04-26T04:09:18.130Z,0.96
2023-04-26T04:10:18.300Z,0.92
2023-04-26T04:11:19.109Z,0.88
2023-04-26T04:12:18.623Z,0.85
2023-04-26T04:13:19.173Z,0.90
2023-04-26T04:14:18.918Z,0.89
2023-04-26T04:15:19.657Z,0.92
2023-04-26T04:16:19.752Z,0.90
2023-04-26T04:17:20.152Z,0.96
2023-04-26T04:18:20.612Z,1.00
2023-04-26T04:19:20.026Z,1.04
2023-04-26T04:20:20.109Z,1.00
2023-04-26T04:21:20.269Z,0.97
2023-04-26T04:22:20.663Z,1.06
2023-04-26T04:23:21.152Z,1.04
2023-04-26T04:24:22.112Z,0.92
2023-04-26T04:25:21.605Z,1.01
2023-04-26T04:26:21.229Z,1.07
2023-04-26T04:27:22.393Z,1.08
2023-04-26T04:28:21.519Z,1.14
2023-04-26T04:29:22.151Z,1.08
2023-04-26T04:30:21.790Z,1.06
2023-04-26T04:31:22.778Z,1.10
2023-04-26T04:32:22.679Z,1.01
2023-04-26T04:33:22.321Z,1.06
2023-04-26T04:34:23.164Z,0.98
2023-04-26T04:35:23.611Z,1.01
2023-04-26T04:36:22.829Z,1.10
2023-04-26T04:37:22.957Z,1.04
2023-04-26T04:38:23.118Z,1.04
2023-04-26T04:39:24.112Z,1.04
2023-04-26T04:40:23.459Z,1.07
2023-04-26T04:41:23.654Z,1.12
2023-04-26T04:42:24.610Z,1.15
2023-04-26T04:43:24.669Z,1.22
2023-04-26T04:44:24.674Z,1.29
2023-04-26T04:45:26.123Z,1.36
2023-04-26T04:46:24.524Z,1.42
2023-04-26T04:47:25.121Z,1.40
2023-04-26T04:48:25.618Z,1.32
2023-04-26T04:49:25.607Z,1.37
2023-04-26T04:50:26.622Z,1.46
2023-04-26T04:51:26.114Z,1.46
2023-04-26T04:52:25.461Z,1.44
2023-04-26T04:53:25.624Z,1.47
2023-04-26T04:54:25.753Z,1.57
2023-04-26T04:55:25.874Z,1.58
2023-04-26T04:56:26.017Z,1.57
2023-04-26T04:57:26.649Z,1.65
2023-04-26T04:58:28.131Z,1.64
2023-04-26T04:59:28.036Z,1.68
2023-04-26T05:00:26.742Z,1.72
2023-04-26T05:01:26.929Z,1.82
2023-04-26T05:02:27.310Z,1.83
2023-04-26T05:03:28.240Z,1.79
2023-04-26T05:04:27.531Z,1.89
2023-04-26T05:05:27.456Z,1.83
2023-04-26T05:06:28.167Z,1.93
2023-04-26T05:07:29.092Z,2.10
2023-04-26T05:08:29.616Z,2.09
2023-04-26T05:09:29.161Z,2.15
2023-04-26T05:10:29.158Z,2.26
2023-04-26T05:11:28.615Z,2.22
2023-04-26T05:12:29.660Z,2.22
2023-04-26T05:13:30.640Z,2.46
2023-04-26T05:14:30.648Z,2.71
2023-04-26T05:15:30.208Z,3.13
2023-04-26T05:16:29.388Z,3.50
2023-04-26T05:17:30.221Z,3.71
2023-04-26T05:18:29.672Z,3.98
2023-04-26T05:19:29.847Z,4.16
2023-04-26T05:20:30.673Z,4.22
2023-04-26T05:21:30.162Z,4.54
2023-04-26T05:22:30.331Z,4.77
2023-04-26T05:23:32.128Z,5.23
2023-04-26T05:24:31.633Z,5.57
2023-04-26T05:25:31.526Z,5.89
2023-04-26T05:26:31.048Z,6.30
2023-04-26T05:27:32.126Z,6.54
2023-04-26T05:28:32.161Z,6.58
2023-04-26T05:29:31.543Z,6.84
2023-04-26T05:30:31.780Z,7.05
2023-04-26T05:31:31.999Z,7.23
2023-04-26T05:32:32.073Z,7.27
2023-04-26T05:33:33.250Z,7.32
2023-04-26T05:34:32.566Z,7.07
2023-04-26T05:35:32.556Z,6.99
2023-04-26T05:36:32.814Z,6.98
2023-04-26T05:37:32.983Z,6.98
2023-04-26T05:38:34.622Z,6.98
2023-04-26T05:39:34.164Z,6.95
2023-04-26T05:40:34.197Z,6.86
2023-04-26T05:41:34.160Z,6.68
2023-04-26T05:42:34.182Z,6.73
2023-04-26T05:43:34.677Z,6.99
2023-04-26T05:44:34.132Z,7.29
2023-04-26T05:45:35.426Z,7.60
2023-04-26T05:46:34.590Z,7.79
2023-04-26T05:47:34.773Z,7.90
2023-04-26T05:48:34.931Z,7.94
2023-04-26T05:49:35.666Z,8.07
2023-04-26T05:50:38.820Z,8.17
2023-04-26T05:51:35.493Z,8.25
2023-04-26T05:52:35.623Z,8.55
2023-04-26T05:53:35.799Z,8.87
2023-04-26T05:54:35.940Z,9.13
2023-04-26T05:55:37.129Z,9.43
2023-04-26T05:56:36.674Z,9.56
2023-04-26T05:57:37.196Z,9.68
2023-04-26T05:58:37.195Z,9.50
2023-04-26T05:59:37.175Z,9.49
2023-04-26T06:00:37.093Z,9.49
2023-04-26T06:01:37.260Z,9.15
2023-04-26T06:02:37.518Z,8.53
2023-04-26T06:03:37.906Z,8.47
2023-04-26T06:04:38.008Z,8.76
2023-04-26T06:05:38.711Z,9.13
2023-04-26T06:06:38.666Z,9.30
2023-04-26T06:07:38.286Z,9.24
2023-04-26T06:08:39.173Z,9.27
2023-04-26T06:09:38.677Z,8.99
2023-04-26T06:10:39.674Z,8.53
2023-04-26T06:11:38.988Z,8.02
2023-04-26T06:12:39.632Z,7.74
2023-04-26T06:13:39.242Z,7.47
2023-04-26T06:14:40.380Z,7.22
2023-04-26T06:15:40.192Z,7.08
2023-04-26T06:16:41.164Z,6.80
2023-04-26T06:17:40.650Z,6.77
2023-04-26T06:18:40.218Z,6.63
2023-04-26T06:19:41.169Z,6.62
2023-04-26T06:20:40.557Z,6.61
2023-04-26T06:21:41.197Z,6.63
2023-04-26T06:22:41.670Z,6.58
2023-04-26T06:23:41.185Z,6.61
2023-04-26T06:24:41.345Z,6.69
2023-04-26T06:25:41.514Z,6.65
2023-04-26T06:26:42.640Z,6.83
2023-04-26T06:27:43.639Z,6.86
2023-04-26T06:28:42.678Z,6.89
2023-04-26T06:29:42.300Z,6.91
2023-04-26T06:30:42.466Z,6.91
2023-04-26T06:31:43.195Z,6.95
2023-04-26T06:32:42.896Z,6.86
2023-04-26T06:33:42.971Z,6.77
2023-04-26T06:34:43.217Z,6.90
2023-04-26T06:35:43.240Z,7.04
2023-04-26T06:36:44.184Z,7.05
2023-04-26T06:37:43.578Z,7.27
2023-04-26T06:38:44.683Z,7.20
2023-04-26T06:39:45.137Z,7.29
2023-04-26T06:40:44.121Z,7.38
2023-04-26T06:41:45.295Z,7.42
2023-04-26T06:42:45.202Z,7.59
2023-04-26T06:43:44.596Z,7.82
2023-04-26T06:44:45.535Z,8.04
2023-04-26T06:45:45.217Z,8.14
2023-04-26T06:46:45.759Z,8.20
2023-04-26T06:47:45.365Z,8.32
2023-04-26T06:48:46.148Z,8.22
2023-04-26T06:49:45.694Z,8.36
2023-04-26T06:50:46.378Z,8.25
2023-04-26T06:51:46.684Z,8.15
2023-04-26T06:52:46.650Z,8.20
2023-04-26T06:53:46.340Z,8.39
2023-04-26T06:54:56.594Z,8.32
2023-04-26T06:55:48.730Z,8.18
2023-04-26T06:56:46.950Z,8.18
2023-04-26T06:57:47.221Z,8.29
2023-04-26T06:58:49.652Z,8.32
2023-04-26T06:59:50.054Z,8.36
2023-04-26T07:00:48.535Z,8.48
2023-04-26T07:01:48.477Z,8.58
2023-04-26T07:02:48.087Z,8.50
2023-04-26T07:03:48.186Z,8.50
2023-04-26T07:04:48.554Z,8.71
2023-04-26T07:05:48.419Z,8.88
2023-04-26T07:06:49.231Z,9.24
2023-04-26T07:07:48.701Z,9.46
2023-04-26T07:08:48.855Z,9.89
2023-04-26T07:09:49.541Z,10.04
2023-04-26T07:10:49.141Z,10.14
2023-04-26T07:11:49.269Z,10.22
2023-04-26T07:12:50.162Z,10.04
2023-04-26T07:13:50.117Z,10.33
2023-04-26T07:14:50.722Z,10.86
2023-04-26T07:15:50.723Z,11.38
2023-04-26T07:16:50.786Z,11.77
2023-04-26T07:17:50.148Z,12.44
2023-04-26T07:18:51.153Z,12.24
2023-04-26T07:19:50.492Z,11.80
2023-04-26T07:20:50.597Z,11.49
2023-04-26T07:21:50.827Z,11.28
2023-04-26T07:22:50.948Z,10.95
2023-04-26T07:23:51.413Z,10.80
2023-04-26T07:24:52.195Z,10.66
2023-04-26T07:25:51.549Z,10.62
2023-04-26T07:26:51.687Z,10.47
2023-04-26T07:27:51.838Z,10.33
2023-04-26T07:28:52.713Z,10.09
2023-04-26T07:29:53.170Z,9.97
2023-04-26T07:30:52.415Z,9.96
2023-04-26T07:31:52.595Z,9.85
2023-04-26T07:32:53.924Z,9.89
2023-04-26T07:33:54.133Z,9.73
2023-04-26T07:34:53.167Z,9.76
2023-04-26T07:35:53.319Z,9.73
2023-04-26T07:36:53.468Z,9.86
2023-04-26T07:37:53.645Z,10.01
2023-04-26T07:38:53.811Z,10.06
2023-04-26T07:39:54.685Z,10.10
2023-04-26T07:40:54.174Z,10.17
2023-04-26T07:41:54.713Z,10.18
2023-04-26T07:42:55.202Z,10.06
2023-04-26T07:43:55.677Z,9.78
2023-04-26T07:44:54.794Z,9.71
2023-04-26T07:45:55.734Z,9.20
2023-04-26T07:46:55.230Z,8.84
2023-04-26T07:47:55.424Z,8.71
2023-04-26T07:48:55.759Z,8.75
2023-04-26T07:49:57.671Z,8.58
2023-04-26T07:50:57.167Z,8.37
2023-04-26T07:51:56.038Z,8.22
2023-04-26T07:52:56.189Z,8.15
2023-04-26T07:53:56.378Z,8.11
2023-04-26T07:54:58.171Z,8.07
2023-04-26T07:55:56.665Z,8.00
2023-04-26T07:56:57.678Z,7.90
2023-04-26T07:57:57.144Z,7.90
2023-04-26T07:58:57.711Z,7.93
2023-04-26T07:59:57.351Z,7.93
2023-04-26T08:00:57.514Z,8.02
2023-04-26T08:01:58.596Z,8.30
2023-04-26T08:02:58.283Z,9.05
2023-04-26T08:04:00.048Z,9.48
2023-04-26T08:04:58.410Z,9.32
2023-04-26T08:05:58.347Z,9.23
2023-04-26T08:06:58.527Z,9.02
2023-04-26T08:07:58.659Z,8.84
2023-04-26T08:09:00.171Z,8.87
2023-04-26T08:10:00.063Z,8.72
2023-04-26T08:10:59.160Z,8.78
2023-04-26T08:11:59.403Z,9.35
2023-04-26T08:12:59.568Z,10.18
2023-04-26T08:14:00.719Z,11.03
2023-04-26T08:14:59.861Z,11.50
2023-04-26T08:16:00.711Z,11.56
2023-04-26T08:17:00.757Z,11.43
2023-04-26T08:18:00.446Z,11.31
2023-04-26T08:19:01.237Z,11.06
2023-04-26T08:20:01.281Z,10.55
2023-04-26T08:21:00.923Z,10.12
2023-04-26T08:22:01.713Z,10.00
2023-04-26T08:23:01.715Z,9.78
2023-04-26T08:24:01.364Z,9.67
2023-04-26T08:25:02.185Z,9.46
2023-04-26T08:26:01.675Z,9.16
2023-04-26T08:27:03.696Z,8.90
2023-04-26T08:28:01.960Z,8.84
2023-04-26T08:29:02.676Z,8.69
2023-04-26T08:30:02.307Z,8.48
2023-04-26T08:31:03.211Z,8.39
2023-04-26T08:32:04.204Z,8.29
2023-04-26T08:33:02.871Z,8.11
2023-04-26T08:34:03.037Z,8.10
2023-04-26T08:35:03.924Z,7.92
2023-04-26T08:36:03.297Z,8.04
2023-04-26T08:37:03.455Z,8.00
2023-04-26T08:38:03.622Z,8.00
2023-04-26T08:39:03.768Z,8.04
2023-04-26T08:40:03.904Z,7.97
2023-04-26T08:41:05.742Z,7.97
2023-04-26T08:42:04.211Z,8.21
2023-04-26T08:43:04.349Z,8.26
2023-04-26T08:44:04.508Z,8.28
2023-04-26T08:45:04.661Z,8.26
2023-04-26T08:46:04.860Z,8.58
2023-04-26T08:47:05.022Z,8.99
2023-04-26T08:48:06.696Z,9.49
2023-04-26T08:49:05.342Z,9.89
2023-04-26T08:50:06.498Z,10.36
2023-04-26T08:51:06.276Z,10.77
2023-04-26T08:52:05.759Z,11.17
2023-04-26T08:53:06.570Z,11.47
2023-04-26T08:54:06.112Z,11.78
2023-04-26T08:55:06.254Z,11.99
2023-04-26T08:56:06.415Z,12.19
2023-04-26T08:57:08.072Z,12.05
2023-04-26T08:58:07.183Z,12.09
2023-04-26T08:59:06.817Z,12.21
2023-04-26T09:00:07.011Z,11.94
2023-04-26T09:01:07.163Z,11.50
2023-04-26T09:02:07.482Z,11.17
2023-04-26T09:03:07.567Z,11.36
2023-04-26T09:04:08.370Z,11.17
2023-04-26T09:05:09.425Z,10.92
2023-04-26T09:06:08.044Z,10.70
2023-04-26T09:07:08.159Z,10.22
2023-04-26T09:08:09.074Z,9.79
2023-04-26T09:09:08.450Z,9.61
2023-04-26T09:10:08.751Z,9.25
2023-04-26T09:11:09.694Z,9.04
2023-04-26T09:12:08.938Z,9.15
2023-04-26T09:13:09.093Z,8.91
2023-04-26T09:14:10.082Z,8.90
2023-04-26T09:15:09.762Z,8.94
2023-04-26T09:16:09.667Z,8.93
2023-04-26T09:17:10.722Z,8.81
2023-04-26T09:18:11.008Z,8.91
2023-04-26T09:19:10.139Z,8.91
2023-04-26T09:20:10.748Z,8.73
2023-04-26T09:21:11.274Z,8.72
2023-04-26T09:22:11.236Z,8.66
2023-04-26T09:23:11.701Z,8.51
2023-04-26T09:24:11.057Z,8.37
2023-04-26T09:25:11.217Z,8.42
2023-04-26T09:26:11.776Z,8.50
2023-04-26T09:27:11.546Z,8.50
2023-04-26T09:28:12.235Z,8.65
2023-04-26T09:29:11.865Z,8.53
2023-04-26T09:30:12.700Z,8.62
2023-04-26T09:31:12.276Z,8.75
2023-04-26T09:32:12.338Z,8.88
2023-04-26T09:33:14.722Z,8.69
2023-04-26T09:34:12.729Z,8.86
2023-04-26T09:35:12.897Z,8.90
2023-04-26T09:36:13.049Z,8.91
2023-04-26T09:37:13.240Z,9.04
2023-04-26T09:38:14.008Z,9.02
2023-04-26T09:39:13.534Z,8.87
2023-04-26T09:40:13.696Z,9.06
2023-04-26T09:41:14.698Z,9.28
2023-04-26T09:42:14.084Z,9.27
2023-04-26T09:43:14.296Z,9.20
2023-04-26T09:44:16.200Z,9.23
2023-04-26T09:45:14.556Z,9.31
2023-04-26T09:46:15.232Z,9.23
2023-04-26T09:47:15.698Z,8.91
2023-04-26T09:48:15.134Z,8.91
2023-04-26T09:49:15.316Z,8.86
2023-04-26T09:50:15.486Z,8.84
2023-04-26T09:51:15.660Z,8.86
2023-04-26T09:52:16.744Z,8.83
2023-04-26T09:53:16.034Z,8.76
2023-04-26T09:54:16.768Z,8.88
2023-04-26T09:55:31.122Z,8.79
2023-04-26T09:56:19.234Z,8.71
2023-04-26T09:57:17.713Z,8.66
2023-04-26T09:58:16.934Z,8.63
2023-04-26T09:59:18.200Z,8.60
2023-04-26T10:00:17.344Z,8.50
2023-04-26T10:01:18.308Z,8.42
2023-04-26T10:02:17.633Z,8.47
2023-04-26T10:03:17.913Z,8.40
2023-04-26T10:04:18.129Z,8.37
2023-04-26T10:05:18.235Z,8.28
2023-04-26T10:06:18.408Z,8.35
2023-04-26T10:07:19.745Z,8.33
2023-04-26T10:08:19.732Z,8.47
2023-04-26T10:09:18.901Z,8.44
2023-04-26T10:10:19.146Z,8.47
2023-04-26T10:11:20.713Z,8.44
2023-04-26T10:12:19.780Z,8.45
2023-04-26T10:13:21.204Z,8.55
2023-04-26T10:14:19.809Z,8.53
2023-04-26T10:15:19.967Z,8.55
2023-04-26T10:16:20.206Z,8.53
2023-04-26T10:17:20.814Z,8.53
2023-04-26T10:18:20.536Z,8.54
2023-04-26T10:19:20.678Z,8.51
2023-04-26T10:20:20.837Z,8.50
2023-04-26T10:21:21.254Z,8.36
2023-04-26T10:22:21.237Z,8.30
2023-04-26T10:23:22.768Z,8.35
2023-04-26T10:24:21.518Z,8.39
2023-04-26T10:25:22.245Z,8.45
2023-04-26T10:26:21.896Z,8.45
2023-04-26T10:27:22.057Z,8.45
2023-04-26T10:28:22.213Z,8.57
2023-04-26T10:29:22.436Z,8.47
2023-04-26T10:30:22.580Z,8.65
2023-04-26T10:31:24.213Z,8.84
2023-04-26T10:32:22.972Z,8.84
2023-04-26T10:33:24.807Z,8.91
2023-04-26T10:34:23.330Z,9.01
2023-04-26T10:35:23.472Z,9.12
2023-04-26T10:36:24.249Z,9.18
2023-04-26T10:37:23.774Z,9.04
2023-04-26T10:38:23.943Z,9.01
2023-04-26T10:39:24.731Z,9.06
2023-04-26T10:40:24.265Z,9.18
2023-04-26T10:41:24.424Z,9.27
2023-04-26T10:42:25.906Z,9.32
2023-04-26T10:43:26.134Z,9.28
2023-04-26T10:44:25.081Z,9.18
2023-04-26T10:45:27.228Z,9.16
2023-04-26T10:46:27.236Z,9.23
2023-04-26T10:47:25.686Z,9.13
2023-04-26T10:48:26.275Z,9.10
2023-04-26T10:49:26.713Z,8.94
2023-04-26T10:50:27.260Z,8.90
2023-04-26T10:51:28.219Z,8.81
2023-04-26T10:52:26.584Z,8.84
2023-04-26T10:53:28.727Z,8.72
2023-04-26T10:54:28.860Z,8.83
2023-04-26T10:55:27.127Z,8.83
2023-04-26T10:56:27.324Z,8.84
2023-04-26T10:57:27.511Z,8.83
2023-04-26T10:58:27.732Z,8.87
2023-04-26T10:59:43.412Z,8.87
2023-04-26T11:00:32.040Z,8.83
2023-04-26T11:01:29.259Z,8.71
2023-04-26T11:02:28.485Z,8.69
2023-04-26T11:03:28.615Z,8.84
2023-04-26T11:04:28.777Z,8.90
2023-04-26T11:05:28.841Z,9.24
2023-04-26T11:06:29.785Z,9.57
2023-04-26T11:07:29.776Z,9.88
2023-04-26T11:08:29.398Z,10.06
2023-04-26T11:09:29.567Z,10.28
2023-04-26T11:10:30.293Z,10.56
2023-04-26T11:11:30.627Z,10.71
2023-04-26T11:12:30.108Z,10.95
2023-04-26T11:13:30.251Z,10.95
2023-04-26T11:14:30.400Z,10.91
2023-04-26T11:15:31.269Z,10.81
2023-04-26T11:16:30.706Z,10.53
2023-04-26T11:17:30.909Z,10.42
2023-04-26T11:18:31.086Z,10.10
2023-04-26T11:19:31.249Z,10.10
2023-04-26T11:20:32.289Z,10.15
2023-04-26T11:21:32.228Z,10.01
2023-04-26T11:22:32.732Z,10.01
2023-04-26T11:23:32.775Z,9.93
2023-04-26T11:24:34.230Z,9.97
2023-04-26T11:25:32.791Z,9.78
2023-04-26T11:26:33.289Z,9.83
2023-04-26T11:27:32.667Z,9.73
2023-04-26T11:28:34.256Z,9.73
2023-04-26T11:29:35.228Z,9.63
2023-04-26T11:30:33.220Z,9.76
2023-04-26T11:31:33.406Z,9.63
2023-04-26T11:32:33.638Z,9.91
2023-04-26T11:33:34.855Z,9.88
2023-04-26T11:34:34.799Z,9.97
2023-04-26T11:35:34.171Z,9.81
2023-04-26T11:36:34.288Z,9.96
2023-04-26T11:37:35.273Z,9.64
2023-04-26T11:38:35.279Z,9.70
2023-04-26T11:39:34.930Z,9.70
2023-04-26T11:40:35.782Z,9.76
2023-04-26T11:41:35.257Z,9.78
2023-04-26T11:42:35.388Z,9.81
2023-04-26T11:43:35.661Z,9.94
2023-04-26T11:44:35.723Z,9.97
2023-04-26T11:45:36.741Z,9.76
2023-04-26T11:46:36.824Z,9.79
2023-04-26T11:47:36.351Z,9.76
2023-04-26T11:48:36.512Z,9.88
2023-04-26T11:49:36.664Z,9.73
2023-04-26T11:50:37.775Z,9.86
2023-04-26T11:51:37.731Z,10.12
2023-04-26T11:52:37.218Z,10.25
2023-04-26T11:53:37.342Z,10.44
2023-04-26T11:54:37.496Z,10.60
2023-04-26T11:55:39.278Z,10.81
2023-04-26T11:56:39.234Z,10.98
2023-04-26T11:57:38.747Z,11.17
2023-04-26T11:58:38.219Z,11.19
2023-04-26T11:59:38.469Z,11.02
2023-04-26T12:00:38.623Z,10.91
2023-04-26T12:01:38.818Z,10.92
2023-04-26T12:02:38.999Z,11.07
2023-04-26T12:03:39.949Z,11.06
2023-04-26T12:04:39.464Z,11.24
2023-04-26T12:05:41.742Z,11.35
2023-04-26T12:06:39.582Z,11.52
2023-04-26T12:07:40.277Z,11.62
2023-04-26T12:08:40.300Z,11.61
2023-04-26T12:09:40.308Z,11.61
2023-04-26T12:10:40.200Z,11.43
2023-04-26T12:11:40.422Z,11.35
2023-04-26T12:12:41.282Z,11.27
2023-04-26T12:13:40.774Z,11.38
2023-04-26T12:14:41.305Z,11.28
2023-04-26T12:15:41.805Z,11.06
2023-04-26T12:16:41.425Z,11.03
2023-04-26T12:17:41.574Z,11.10
2023-04-26T12:18:41.638Z,11.02
2023-04-26T12:19:41.807Z,11.38
2023-04-26T12:20:43.750Z,11.57
2023-04-26T12:21:42.110Z,11.75
2023-04-26T12:22:42.274Z,11.70
2023-04-26T12:23:42.436Z,11.94
2023-04-26T12:24:44.741Z,12.42
2023-04-26T12:25:43.747Z,12.41
2023-04-26T12:26:43.015Z,12.56
2023-04-26T12:27:43.200Z,12.38
2023-04-26T12:28:43.388Z,12.21
2023-04-26T12:29:43.793Z,12.06
2023-04-26T12:30:44.751Z,11.94
2023-04-26T12:31:43.914Z,11.97
2023-04-26T12:32:44.167Z,11.97
2023-04-26T12:33:44.796Z,12.16
2023-04-26T12:34:44.466Z,12.46
2023-04-26T12:35:45.241Z,12.63
2023-04-26T12:36:46.761Z,12.64
2023-04-26T12:37:45.036Z,12.49
2023-04-26T12:38:45.220Z,12.37
2023-04-26T12:39:45.381Z,12.09
2023-04-26T12:40:45.545Z,11.68
2023-04-26T12:41:45.717Z,11.49
2023-04-26T12:42:45.913Z,11.35
2023-04-26T12:43:46.090Z,11.24
2023-04-26T12:44:46.749Z,11.17
2023-04-26T12:45:46.405Z,11.14
2023-04-26T12:46:46.689Z,11.03
2023-04-26T12:47:47.794Z,10.95
2023-04-26T12:48:48.641Z,10.86
2023-04-26T12:49:47.124Z,10.83
2023-04-26T12:50:51.099Z,10.63
2023-04-26T12:51:48.314Z,10.42
2023-04-26T12:52:47.571Z,10.42
2023-04-26T12:53:47.721Z,10.59
2023-04-26T12:54:47.872Z,10.63
2023-04-26T12:55:48.757Z,10.63
2023-04-26T12:56:48.775Z,10.70
2023-04-26T12:57:49.305Z,10.66
2023-04-26T12:58:48.551Z,10.78
2023-04-26T12:59:49.301Z,10.77
2023-04-26T13:00:49.308Z,10.60
2023-04-26T13:01:49.796Z,10.74
2023-04-26T13:02:50.816Z,10.76
2023-04-26T13:03:49.693Z,10.84
2023-04-26T13:04:51.494Z,10.99
2023-04-26T13:05:49.679Z,10.92
2023-04-26T13:06:50.766Z,10.92
2023-04-26T13:07:50.050Z,11.01
2023-04-26T13:08:50.236Z,11.03
2023-04-26T13:09:51.270Z,10.98
2023-04-26T13:10:50.561Z,10.86
2023-04-26T13:11:51.663Z,10.86
2023-04-26T13:12:50.913Z,10.88
2023-04-26T13:13:51.305Z,10.99
2023-04-26T13:14:51.761Z,10.84
2023-04-26T13:15:52.793Z,10.76